createdAt,value
2018-12-27T00:00:58.310Z,11.83
2018-12-27T00:03:25.361Z,12.73
2018-12-27T00:05:52.302Z,12.80
2018-12-27T00:08:19.355Z,10.90
2018-12-27T00:10:46.398Z,12.80
2018-12-27T00:13:13.448Z,11.27
2018-12-27T00:15:40.397Z,8.03
2018-12-27T00:18:07.445Z,13.57
2018-12-27T00:20:34.497Z,11.17
2018-12-27T00:23:01.541Z,10.43
2018-12-27T00:25:28.494Z,11.13
2018-12-27T00:27:55.533Z,12.43
2018-12-27T00:30:22.582Z,11.70
2018-12-27T00:32:49.638Z,6.77
2018-12-27T00:35:16.680Z,8.53
2018-12-27T00:37:43.727Z,7.17
2018-12-27T00:40:10.788Z,6.70
2018-12-27T00:42:37.825Z,8.50
2018-12-27T00:45:04.872Z,4.53
2018-12-27T00:47:31.868Z,4.80
2018-12-27T00:49:58.867Z,6.93
2018-12-27T00:52:25.812Z,5.00
2018-12-27T00:54:52.868Z,8.07
2018-12-27T00:57:19.922Z,8.10
2018-12-27T00:59:46.960Z,5.93
2018-12-27T01:02:14.115Z,0.77
2018-12-27T01:04:41.159Z,6.47
2018-12-27T01:07:08.212Z,5.90
2018-12-27T01:09:35.255Z,7.70
2018-12-27T01:12:02.304Z,7.43
2018-12-27T01:14:29.358Z,8.80
2018-12-27T01:16:56.400Z,7.77
2018-12-27T01:19:23.449Z,13.30
2018-12-27T01:21:50.395Z,9.67
2018-12-27T01:24:17.445Z,12.03
2018-12-27T01:26:44.497Z,15.90
2018-12-27T01:29:11.540Z,10.73
2018-12-27T01:31:38.544Z,13.17
2018-12-27T01:34:05.535Z,10.47
2018-12-27T01:36:32.486Z,15.97
2018-12-27T01:38:59.530Z,13.77
2018-12-27T01:41:26.681Z,16.17
2018-12-27T01:43:53.729Z,16.27
2018-12-27T01:46:20.783Z,14.50
2018-12-27T01:48:47.827Z,14.73
2018-12-27T01:51:14.876Z,14.30
2018-12-27T01:53:41.928Z,13.90
2018-12-27T01:56:08.971Z,16.53
2018-12-27T01:58:48.930Z,13.60
2018-12-27T02:01:34.704Z,17.77
2018-12-27T02:04:17.287Z,7.93
2018-12-27T02:06:48.580Z,16.73
2018-12-27T02:09:15.620Z,14.73
2018-12-27T02:11:42.674Z,11.93
2018-12-27T02:14:09.717Z,15.53
2018-12-27T02:16:36.765Z,12.70
2018-12-27T02:19:03.821Z,13.90
2018-12-27T02:21:31.067Z,14.97
2018-12-27T02:23:59.965Z,13.30
2018-12-27T02:26:27.423Z,15.13
2018-12-27T02:28:54.465Z,11.67
2018-12-27T02:31:21.514Z,16.63
2018-12-27T02:33:48.570Z,14.67
2018-12-27T02:36:15.613Z,14.57
2018-12-27T02:38:42.658Z,12.70
2018-12-27T02:41:09.712Z,11.73
2018-12-27T02:43:36.757Z,8.03
2018-12-27T02:46:03.806Z,11.97
2018-12-27T02:48:30.872Z,9.90
2018-12-27T02:50:57.901Z,14.17
2018-12-27T02:53:24.951Z,13.50
2018-12-27T02:55:51.945Z,2.33
2018-12-27T02:58:18.947Z,12.03
2018-12-27T03:00:45.999Z,11.77
2018-12-27T03:03:13.043Z,12.53
2018-12-27T03:05:40.090Z,9.07
2018-12-27T03:08:07.149Z,12.23
2018-12-27T03:10:34.192Z,11.73
2018-12-27T03:13:01.241Z,13.70
2018-12-27T03:15:29.721Z,12.67
2018-12-27T03:17:56.769Z,12.20
2018-12-27T03:20:23.828Z,11.23
2018-12-27T03:22:50.869Z,12.50
2018-12-27T03:25:17.912Z,10.80
2018-12-27T03:27:44.969Z,8.13
2018-12-27T03:30:11.963Z,6.30
2018-12-27T03:32:39.059Z,10.50
2018-12-27T03:35:06.053Z,9.80
2018-12-27T03:37:33.156Z,10.70
2018-12-27T03:40:01.126Z,11.23
2018-12-27T03:42:28.178Z,10.87
2018-12-27T03:44:55.222Z,10.70
2018-12-27T03:47:22.272Z,9.27
2018-12-27T03:49:49.217Z,7.07
2018-12-27T03:52:16.368Z,7.80
2018-12-27T03:54:43.416Z,10.50
2018-12-27T03:57:10.474Z,9.47
2018-12-27T03:59:37.513Z,8.27
2018-12-27T04:02:04.562Z,5.40
2018-12-27T04:04:31.561Z,8.50
2018-12-27T04:06:59.478Z,11.30
2018-12-27T04:09:26.532Z,10.27
2018-12-27T04:11:53.575Z,8.43
2018-12-27T04:14:22.159Z,3.47
2018-12-27T04:16:49.215Z,2.00
2018-12-27T04:19:16.262Z,1.57
2018-12-27T04:21:47.858Z,7.93
2018-12-27T04:24:14.967Z,8.27
2018-12-27T04:26:42.010Z,9.07
2018-12-27T04:29:10.807Z,10.57
2018-12-27T04:31:39.383Z,9.83
2018-12-27T04:34:09.695Z,9.27
2018-12-27T04:36:35.119Z,6.83
2018-12-27T04:39:02.117Z,7.47
2018-12-27T04:41:29.113Z,8.27
2018-12-27T04:43:56.170Z,9.60
2018-12-27T04:46:23.211Z,9.27
2018-12-27T04:48:50.261Z,11.00
2018-12-27T04:51:17.313Z,10.17
2018-12-27T04:53:44.357Z,9.97
2018-12-27T04:56:11.405Z,7.57
2018-12-27T04:58:38.461Z,8.40
2018-12-27T05:01:05.503Z,8.80
2018-12-27T05:03:32.551Z,7.83
2018-12-27T05:05:59.605Z,7.10
2018-12-27T05:08:26.651Z,3.77
2018-12-27T05:10:53.698Z,8.47
2018-12-27T05:13:20.750Z,7.60
2018-12-27T05:15:47.793Z,6.17
2018-12-27T05:18:14.793Z,7.03
2018-12-27T05:20:41.789Z,6.83
2018-12-27T05:23:08.840Z,6.90
2018-12-27T05:25:37.319Z,8.63
2018-12-27T05:28:04.368Z,6.63
2018-12-27T05:30:31.422Z,6.43
2018-12-27T05:32:59.493Z,4.20
2018-12-27T05:35:27.565Z,6.00
2018-12-27T05:37:54.813Z,6.27
2018-12-27T05:40:21.869Z,5.73
2018-12-27T05:42:48.910Z,6.33
2018-12-27T05:45:15.959Z,5.03
2018-12-27T05:47:43.013Z,6.23
2018-12-27T05:50:10.056Z,5.50
2018-12-27T05:52:37.104Z,5.23
2018-12-27T05:55:04.159Z,5.47
2018-12-27T05:57:31.203Z,5.47
2018-12-27T05:59:58.255Z,5.77
2018-12-27T06:02:25.303Z,7.50
2018-12-27T06:04:52.351Z,6.47
2018-12-27T06:07:19.302Z,14.23
2018-12-27T06:09:46.449Z,9.20
2018-12-27T06:12:13.494Z,12.40
2018-12-27T06:14:40.544Z,11.30
2018-12-27T06:17:07.597Z,7.23
2018-12-27T06:19:34.637Z,6.00
2018-12-27T06:22:01.686Z,6.83
2018-12-27T06:24:28.748Z,6.90
2018-12-27T06:26:55.782Z,7.57
2018-12-27T06:29:22.832Z,6.97
2018-12-27T06:31:49.886Z,6.77
2018-12-27T06:34:16.929Z,5.87
2018-12-27T06:36:45.616Z,6.20
2018-12-27T06:39:12.566Z,7.20
2018-12-27T06:41:39.610Z,9.43
2018-12-27T06:44:06.658Z,9.03
2018-12-27T06:46:33.712Z,7.23
2018-12-27T06:49:00.755Z,6.90
2018-12-27T06:51:27.803Z,8.10
2018-12-27T06:53:54.860Z,7.30
2018-12-27T06:56:21.901Z,9.20
2018-12-27T06:58:48.950Z,8.57
2018-12-27T07:01:16.006Z,10.20
2018-12-27T07:03:43.049Z,9.53
2018-12-27T07:06:10.095Z,6.87
2018-12-27T07:08:37.150Z,7.43
2018-12-27T07:11:04.191Z,8.93
2018-12-27T07:13:31.958Z,8.80
2018-12-27T07:16:00.337Z,5.30
2018-12-27T07:18:27.386Z,3.00
2018-12-27T07:20:54.441Z,6.43
2018-12-27T07:23:22.096Z,7.63
2018-12-27T07:25:49.144Z,5.33
2018-12-27T07:28:16.091Z,6.73
2018-12-27T07:30:46.344Z,8.37
2018-12-27T07:33:13.720Z,0.47
2018-12-27T07:35:40.725Z,7.13
2018-12-27T07:38:08.186Z,7.63
2018-12-27T07:40:35.176Z,8.93
2018-12-27T07:43:02.177Z,6.53
2018-12-27T07:45:41.676Z,6.93
2018-12-27T07:48:25.697Z,6.23
2018-12-27T07:50:52.706Z,5.53
2018-12-27T07:53:19.757Z,6.20
2018-12-27T07:55:49.579Z,1.67
2018-12-27T07:58:16.616Z,3.53
2018-12-27T08:00:45.304Z,7.03
2018-12-27T08:03:12.309Z,3.30
2018-12-27T08:05:39.408Z,4.33
2018-12-27T08:08:06.408Z,10.07
2018-12-27T08:10:33.399Z,13.33
2018-12-27T08:13:00.446Z,47.03
2018-12-27T08:15:27.492Z,18.30
2018-12-27T08:17:54.549Z,8.10
2018-12-27T08:20:21.588Z,8.33
2018-12-27T08:22:48.637Z,1.53
2018-12-27T08:25:15.690Z,6.77
2018-12-27T08:27:42.736Z,3.37
2018-12-27T08:30:09.685Z,7.80
2018-12-27T08:32:36.728Z,4.83
2018-12-27T08:35:11.123Z,6.83
2018-12-27T08:37:32.135Z,7.70
2018-12-27T08:39:59.211Z,6.73
2018-12-27T08:42:27.700Z,7.30
2018-12-27T08:44:55.761Z,11.73
2018-12-27T08:47:23.526Z,0.23
2018-12-27T08:49:50.579Z,5.87
2018-12-27T08:52:19.226Z,4.67
2018-12-27T08:54:49.070Z,7.03
2018-12-27T08:57:17.322Z,1.73
2018-12-27T08:59:45.223Z,10.00
2018-12-27T09:02:13.502Z,2.37
2018-12-27T09:05:18.797Z,7.63
2018-12-27T09:07:46.917Z,11.20
2018-12-27T09:10:16.736Z,6.90
2018-12-27T09:12:45.519Z,4.90
2018-12-27T09:15:12.850Z,5.00
2018-12-27T09:17:42.001Z,6.77
2018-12-27T09:20:09.121Z,14.63
2018-12-27T09:22:36.072Z,1.00
2018-12-27T09:25:03.223Z,9.37
2018-12-27T09:27:34.287Z,3.77
2018-12-27T09:30:01.457Z,4.67
2018-12-27T09:32:30.713Z,8.57
2018-12-27T09:34:57.760Z,8.80
2018-12-27T09:37:24.815Z,7.47
2018-12-27T09:39:51.861Z,2.63
2018-12-27T09:42:18.905Z,8.57
2018-12-27T09:44:45.959Z,1.53
2018-12-27T09:47:14.031Z,2.10
2018-12-27T09:49:41.075Z,7.70
2018-12-27T09:52:08.127Z,1.13
2018-12-27T09:54:35.485Z,13.00
2018-12-27T09:57:02.528Z,4.30
2018-12-27T09:59:29.577Z,10.33
2018-12-27T10:01:56.630Z,11.17
2018-12-27T10:04:23.673Z,8.97
2018-12-27T10:06:50.563Z,9.67
2018-12-27T10:09:17.568Z,6.30
2018-12-27T10:11:44.619Z,11.93
2018-12-27T10:14:11.663Z,13.10
2018-12-27T10:16:38.712Z,4.47
2018-12-27T10:19:05.764Z,3.17
2018-12-27T10:21:34.761Z,11.83
2018-12-27T10:24:01.755Z,5.30
2018-12-27T10:26:28.753Z,8.57
2018-12-27T10:28:57.383Z,3.00
2018-12-27T10:31:24.381Z,9.93
2018-12-27T10:33:51.435Z,0.70
2018-12-27T10:36:18.684Z,9.60
2018-12-27T10:38:45.834Z,8.37
2018-12-27T10:41:15.137Z,10.80
2018-12-27T10:43:43.670Z,4.07
2018-12-27T10:46:10.666Z,10.13
2018-12-27T10:48:37.721Z,10.83
2018-12-27T10:51:05.994Z,3.00
2018-12-27T10:53:53.838Z,10.70
2018-12-27T10:56:40.711Z,7.63
2018-12-27T10:59:07.688Z,11.60
2018-12-27T11:01:34.737Z,13.70
2018-12-27T11:04:01.790Z,11.87
2018-12-27T11:06:30.325Z,6.33
2018-12-27T11:08:57.321Z,16.30
2018-12-27T11:11:25.799Z,10.93
2018-12-27T11:13:52.852Z,14.43
2018-12-27T11:16:19.898Z,16.47
2018-12-27T11:18:46.963Z,16.03
2018-12-27T11:21:14.001Z,16.77
2018-12-27T11:23:41.041Z,7.13
2018-12-27T11:26:08.090Z,7.57
2018-12-27T11:28:35.144Z,13.07
2018-12-27T11:31:02.188Z,16.20
2018-12-27T11:33:29.144Z,15.30
2018-12-27T11:35:56.182Z,14.53
2018-12-27T11:38:23.230Z,17.77
2018-12-27T11:40:50.283Z,17.90
2018-12-27T11:43:17.227Z,18.73
2018-12-27T11:45:44.279Z,16.47
2018-12-27T11:48:11.325Z,13.20
2018-12-27T11:50:39.200Z,15.90
2018-12-27T11:53:06.241Z,16.40
2018-12-27T11:55:33.291Z,12.87
2018-12-27T11:58:00.342Z,18.37
2018-12-27T12:00:27.385Z,19.23
2018-12-27T12:02:54.435Z,19.60
2018-12-27T12:05:21.486Z,19.83
2018-12-27T12:07:48.530Z,18.90
2018-12-27T12:10:15.578Z,14.27
2018-12-27T12:12:42.729Z,13.63
2018-12-27T12:15:09.791Z,17.53
2018-12-27T12:17:36.830Z,18.17
2018-12-27T12:20:03.976Z,11.10
2018-12-27T12:22:31.025Z,17.40
2018-12-27T12:24:58.079Z,18.90
2018-12-27T12:27:25.125Z,11.80
2018-12-27T12:29:52.276Z,18.27
2018-12-27T12:32:19.320Z,15.77
2018-12-27T12:34:46.375Z,16.37
2018-12-27T12:37:14.954Z,18.80
2018-12-27T12:39:42.004Z,37.20
2018-12-27T12:42:09.061Z,10.60
2018-12-27T12:44:36.101Z,12.57
2018-12-27T12:47:03.154Z,15.70
2018-12-27T12:49:30.145Z,15.10
2018-12-27T12:51:57.553Z,22.00
2018-12-27T12:54:24.506Z,17.70
2018-12-27T12:56:51.548Z,13.30
2018-12-27T12:59:19.314Z,20.30
2018-12-27T13:01:46.363Z,19.77
2018-12-27T13:04:13.416Z,19.30
2018-12-27T13:06:40.971Z,19.90
2018-12-27T13:09:08.025Z,20.93
2018-12-27T13:11:35.068Z,20.53
2018-12-27T13:14:02.116Z,18.40
2018-12-27T13:16:29.171Z,17.57
2018-12-27T13:18:56.214Z,14.23
2018-12-27T13:21:23.262Z,17.20
2018-12-27T13:23:50.317Z,59.40
2018-12-27T13:26:17.468Z,23.90
2018-12-27T13:28:44.510Z,20.00
2018-12-27T13:31:11.560Z,79.73
2018-12-27T13:33:38.612Z,16.10
2018-12-27T13:36:05.860Z,18.43
2018-12-27T13:38:32.915Z,19.07
2018-12-27T13:41:00.661Z,18.90
2018-12-27T13:43:27.108Z,20.60
2018-12-27T13:45:54.158Z,19.07
2018-12-27T13:48:21.213Z,21.83
2018-12-27T13:50:48.255Z,19.97
2018-12-27T13:53:15.303Z,19.90
2018-12-27T13:55:42.356Z,19.00
2018-12-27T13:58:09.298Z,20.57
2018-12-27T14:03:33.917Z,20.43
2018-12-27T14:06:00.960Z,27.40
2018-12-27T14:08:28.012Z,24.17
2018-12-27T14:10:55.061Z,46.23
2018-12-27T14:13:22.104Z,28.27
2018-12-27T14:15:49.153Z,21.70
2018-12-27T14:18:16.456Z,24.93
2018-12-27T14:20:43.456Z,26.53
2018-12-27T14:23:10.509Z,21.67
2018-12-27T14:25:38.371Z,21.07
2018-12-27T14:28:05.426Z,20.07
2018-12-27T14:30:32.367Z,20.33
2018-12-27T14:32:59.827Z,20.97
2018-12-27T14:35:26.877Z,20.67
2018-12-27T14:37:53.920Z,20.87
2018-12-27T14:40:20.969Z,19.53
2018-12-27T14:42:48.026Z,20.57
2018-12-27T14:45:15.175Z,19.73
2018-12-27T14:47:45.037Z,18.90
2018-12-27T14:50:12.857Z,20.73
2018-12-27T14:52:39.905Z,20.93
2018-12-27T14:55:08.486Z,21.07
2018-12-27T14:57:35.537Z,21.43
2018-12-27T15:00:02.585Z,23.00
2018-12-27T15:02:29.628Z,21.33
2018-12-27T15:04:56.684Z,21.10
2018-12-27T15:07:23.727Z,21.03
2018-12-27T15:09:50.990Z,22.17
2018-12-27T15:12:18.029Z,22.37
2018-12-27T15:14:45.076Z,22.57
2018-12-27T15:17:13.763Z,22.07
2018-12-27T15:19:40.817Z,29.63
2018-12-27T15:22:07.861Z,22.37
2018-12-27T15:24:34.908Z,20.73
2018-12-27T15:27:01.962Z,21.47
2018-12-27T15:29:29.005Z,22.80
2018-12-27T15:31:56.054Z,24.27
2018-12-27T15:34:23.001Z,27.40
2018-12-27T15:36:54.310Z,39.00
2018-12-27T15:39:17.102Z,24.03
2018-12-27T15:41:44.254Z,33.40
2018-12-27T15:44:11.604Z,24.20
2018-12-27T15:46:38.652Z,34.00
2018-12-27T15:49:05.706Z,24.17
2018-12-27T15:51:32.711Z,27.13
2018-12-27T15:53:59.701Z,28.20
2018-12-27T15:56:26.744Z,22.83
2018-12-27T15:58:53.792Z,25.57
2018-12-27T16:01:21.251Z,23.90
2018-12-27T16:03:48.306Z,22.03
2018-12-27T16:06:15.860Z,23.77
2018-12-27T16:08:43.223Z,34.07
2018-12-27T16:11:18.667Z,37.93
2018-12-27T16:13:47.354Z,34.27
2018-12-27T16:16:14.397Z,32.83
2018-12-27T16:18:41.445Z,25.23
2018-12-27T16:21:09.826Z,31.60
2018-12-27T16:23:36.879Z,23.67
2018-12-27T16:26:03.923Z,30.07
2018-12-27T16:28:31.381Z,52.63
2018-12-27T16:30:58.532Z,44.40
2018-12-27T16:33:25.579Z,39.83
2018-12-27T16:35:53.101Z,25.90
2018-12-27T16:38:20.092Z,30.53
2018-12-27T16:40:47.136Z,27.50
2018-12-27T16:43:14.184Z,26.37
2018-12-27T16:45:41.239Z,28.47
2018-12-27T16:48:08.180Z,28.33
2018-12-27T16:50:35.235Z,27.97
2018-12-27T16:53:02.303Z,29.83
2018-12-27T16:55:29.325Z,30.57
2018-12-27T16:57:56.379Z,30.73
2018-12-27T17:00:23.422Z,28.37
2018-12-27T17:02:50.572Z,29.67
2018-12-27T17:05:19.161Z,28.90
2018-12-27T17:07:46.212Z,27.53
2018-12-27T17:10:13.151Z,27.47
2018-12-27T17:12:40.149Z,25.20
2018-12-27T17:15:07.147Z,30.13
2018-12-27T17:17:34.201Z,31.17
2018-12-27T17:20:01.245Z,36.23
2018-12-27T17:22:28.292Z,32.63
2018-12-27T17:24:55.346Z,32.53
2018-12-27T17:27:22.390Z,39.03
2018-12-27T17:29:49.439Z,31.47
2018-12-27T17:32:16.493Z,23.57
2018-12-27T17:34:43.535Z,12.93
2018-12-27T17:37:10.584Z,16.80
2018-12-27T17:39:37.638Z,15.50
2018-12-27T17:42:04.682Z,11.80
2018-12-27T17:44:32.556Z,17.20
2018-12-27T17:46:59.909Z,13.80
2018-12-27T17:49:26.955Z,14.87
2018-12-27T17:51:54.008Z,21.70
2018-12-27T17:54:21.055Z,16.83
2018-12-27T17:56:48.107Z,15.07
2018-12-27T17:59:15.659Z,14.97
2018-12-27T18:01:42.707Z,6.10
2018-12-27T18:04:09.766Z,11.93
2018-12-27T18:06:37.114Z,8.13
2018-12-27T18:09:05.186Z,10.10
2018-12-27T18:11:32.233Z,6.77
2018-12-27T18:13:59.998Z,2.23
2018-12-27T18:16:27.052Z,3.50
2018-12-27T18:18:54.096Z,12.53
2018-12-27T18:21:22.890Z,2.80
2018-12-27T18:23:49.933Z,9.97
2018-12-27T18:26:16.983Z,10.53
2018-12-27T18:28:44.036Z,4.20
2018-12-27T18:31:10.977Z,9.90
2018-12-27T18:33:38.030Z,8.10
2018-12-27T18:36:05.073Z,3.13
2018-12-27T18:38:32.122Z,4.33
2018-12-27T18:40:59.177Z,3.60
2018-12-27T18:43:26.219Z,4.93
2018-12-27T18:45:53.268Z,4.00
2018-12-27T18:48:20.322Z,2.97
2018-12-27T18:50:47.367Z,8.57
2018-12-27T18:53:19.455Z,3.83
2018-12-27T18:55:46.482Z,4.93
2018-12-27T18:58:13.534Z,2.37
2018-12-27T19:00:40.577Z,8.60
2018-12-27T19:03:07.627Z,9.40
2018-12-27T19:05:34.679Z,7.77
2018-12-27T19:08:04.386Z,1.23
2018-12-27T19:10:31.440Z,7.30
2018-12-27T19:13:02.476Z,11.77
2018-12-27T19:15:29.523Z,7.40
2018-12-27T19:17:56.675Z,11.40
2018-12-27T19:20:23.727Z,10.93
2018-12-27T19:22:54.565Z,15.93
2018-12-27T19:25:21.609Z,8.20
2018-12-27T19:27:48.659Z,14.97
2018-12-27T19:30:15.711Z,11.80
2018-12-27T19:32:43.061Z,14.90
2018-12-27T19:35:10.113Z,8.37
2018-12-27T19:37:37.164Z,8.97
2018-12-27T19:40:05.597Z,6.17
2018-12-27T19:42:32.588Z,4.17
2018-12-27T19:44:59.637Z,5.27
2018-12-27T19:47:28.322Z,4.97
2018-12-27T19:49:55.377Z,2.27
2018-12-27T19:52:22.371Z,3.30
2018-12-27T19:54:50.800Z,5.80
2018-12-27T19:57:17.849Z,3.20
2018-12-27T19:59:44.906Z,3.30
2018-12-27T20:02:12.821Z,8.63
2018-12-27T20:04:39.821Z,8.43
2018-12-27T20:07:06.861Z,2.00
2018-12-27T20:09:33.910Z,6.43
2018-12-27T20:12:00.967Z,13.77
2018-12-27T20:14:32.432Z,14.53
2018-12-27T20:16:59.459Z,14.87
2018-12-27T20:19:26.507Z,13.37
2018-12-27T20:21:55.349Z,12.00
2018-12-27T20:24:22.345Z,11.30
2018-12-27T20:26:49.401Z,12.13
2018-12-27T20:29:16.443Z,2.33
2018-12-27T20:31:43.490Z,9.80
2018-12-27T20:34:10.543Z,3.90
2018-12-27T20:36:37.588Z,3.73
2018-12-27T20:39:04.640Z,3.27
2018-12-27T20:41:31.694Z,2.10
2018-12-27T20:44:00.382Z,2.90
2018-12-27T20:46:27.423Z,6.03
2018-12-27T20:48:54.472Z,3.77
2018-12-27T20:51:21.526Z,3.07
2018-12-27T20:53:50.519Z,7.37
2018-12-27T20:56:17.559Z,5.47
2018-12-27T20:58:44.607Z,9.53
2018-12-27T21:01:11.662Z,11.33
2018-12-27T21:03:38.705Z,1.50
2018-12-27T21:06:05.754Z,3.07
2018-12-27T21:08:32.818Z,10.13
2018-12-27T21:10:59.851Z,6.90
2018-12-27T21:13:26.901Z,2.00
2018-12-27T21:15:53.958Z,7.30
2018-12-27T21:18:20.996Z,3.10
2018-12-27T21:20:47.948Z,3.00
2018-12-27T21:23:14.994Z,2.03
2018-12-27T21:25:42.039Z,1.37
2018-12-27T21:28:09.093Z,4.17
2018-12-27T21:30:36.136Z,1.40
2018-12-27T21:33:03.394Z,5.13
2018-12-27T21:35:30.438Z,1.60
2018-12-27T21:37:57.491Z,10.47
2018-12-27T21:40:24.539Z,1.60
2018-12-27T21:42:52.095Z,1.83
2018-12-27T21:45:19.148Z,6.80
2018-12-27T21:47:46.192Z,1.57
2018-12-27T21:50:13.957Z,2.23
2018-12-27T21:52:41.526Z,8.33
2018-12-27T21:55:08.568Z,3.13
2018-12-27T21:57:35.923Z,3.03
2018-12-27T22:00:03.692Z,2.23
2018-12-27T22:02:31.759Z,0.90
2018-12-27T22:05:02.130Z,1.50
2018-12-27T22:07:30.881Z,3.07
2018-12-27T22:10:00.268Z,4.00
2018-12-27T22:12:28.870Z,1.73
2018-12-27T22:14:56.026Z,0.23
2018-12-27T22:17:23.984Z,3.70
2018-12-27T22:19:52.707Z,3.53
2018-12-27T22:22:19.717Z,2.50
2018-12-27T22:24:46.772Z,2.80
2018-12-27T22:27:13.815Z,2.33
2018-12-27T22:29:40.864Z,1.63
2018-12-27T22:32:07.917Z,2.33
2018-12-27T22:34:34.961Z,2.13
2018-12-27T22:37:02.011Z,2.53
2018-12-27T22:39:29.062Z,1.43
2018-12-27T22:41:56.106Z,0.97
2018-12-27T22:44:23.155Z,2.10
2018-12-27T22:46:50.209Z,2.03
2018-12-27T22:49:17.253Z,8.07
2018-12-27T22:51:44.300Z,2.63
2018-12-27T22:54:11.355Z,1.90
2018-12-27T22:56:38.397Z,1.70
2018-12-27T22:59:05.397Z,1.50
2018-12-27T23:01:32.391Z,3.00
2018-12-27T23:03:59.441Z,3.07
2018-12-27T23:06:26.506Z,5.50
2018-12-27T23:08:53.436Z,1.00
2018-12-27T23:11:20.488Z,2.57
2018-12-27T23:13:47.532Z,3.20
2018-12-27T23:16:14.580Z,2.23
2018-12-27T23:18:41.635Z,2.90
2018-12-27T23:21:08.677Z,0.60
2018-12-27T23:23:35.725Z,2.70
2018-12-27T23:26:04.515Z,3.27
2018-12-27T23:28:31.563Z,2.23
2018-12-27T23:30:58.511Z,1.17
2018-12-27T23:33:25.509Z,2.93
2018-12-27T23:35:52.509Z,1.23
2018-12-27T23:38:19.552Z,1.83
2018-12-27T23:40:47.321Z,1.07
2018-12-27T23:43:14.373Z,2.60
2018-12-27T23:45:41.415Z,3.40
2018-12-27T23:48:08.368Z,0.80
2018-12-27T23:50:35.409Z,0.40
2018-12-27T23:53:02.457Z,1.03
2018-12-27T23:55:29.510Z,2.60
2018-12-27T23:57:56.555Z,2.17
